SEBI

Registration No.

INH000000305

Ip Address Lookup

So far visitors:

customizable counter

TRIAL

TRIAL

SEND SMS FOR TRIAL

EQUITY - COMMODITY OR BOTH

TO

 09920033678

AND GET TRIAL

 


Information: COPPER (MCX): LOT SIZE CHANGED TO 2500 from 1000 (from JUL CONTRACT)

SEBI Registration No.: INH000000305 *****

* Commodity: 9500/month * Equity: 6000/month


* Gold Package: 7000 * Gold-Silver Package: 8100
*Crude-NG-Copper-Nickel Package: 6000


To See Past Performance, Click Here

For TRIAL / Registration,

click here

Past Performance >> Equity Tips
 
Search
 
Entry Start Date Entry End Date
Exit Start Date Exit End Date
Scrip Name Contract
Package
 

Packages: Precious Metals - Energy and Base Metals - Profit is calculated on basis of 1 lot per call

Package: Equity calls: Profit is calculated as follows:

1. If the scrip is in F & O then 1 lot is counted otherwise

2. Trade of Rs.1,50,000/- per call is counted.

 
Page: ( 1 2 3 4 5 6 7 8 9 10 11 12 13 14 15 16 17 18 19 20 21 22 23 24 25 26 27 28 29 30 31 32 33 34 35 36 37 38 39 40 41 42 43 44 45 46 47 48 49 50 51 52 53 54 55 56 57 58 59 60 61 62 63 64 65 66 67 68 69 70 71 72 73 74 75 76 77 78 79 80 81 82 83 84 85 86 87 88 89 90 91 92 93 94 95 96 97 98 99 100 101 102 103 104 105 106 107 108 109 110 111 112 ) [Current Page: 81]
Displaying 6001 to 6075   Calls
Entry Date Type Scrip Entry Price (Rs) T1
(Rs)
T2
(Rs)
T3
(Rs)
Stop Loss
(Rs)
Exit Date Exit Rate
(Rs)
Profit
(Rs)
 
13-12-12 Sell Below INFY 2290 2265 2240 2200 2315 14-12-12 2281 1125.00 More
13-12-12 Sell Below HINDALCO 118.50 117 115 112 120 13-12-12 116.30 4400.00 More
13-12-12 Buy Above BANK NIFTY 12415 12470 12510 12550 12350 13-12-12 12520 2625.00 More
13-12-12 Buy Above Nifty 5935 5955 5970 --- 5915 13-12-12 5915 -1000.00 More
13-12-12 Sell Below Nifty 5915 5900 5885 5870 5935 13-12-12 5875 2000.00 More
13-12-12 Sell Below Crompton Greaves 113 111 109 107 114.50 13-12-12 114.50 -3000.00 More
13-12-12 Buy Above RELIANCE CAPITAL 478 488 495 500 468 13-12-12 468 -5000.00 More
13-12-12 Buy M&M 958 970 980 990 945 13-12-12 945 -6500.00 More
12-12-12 Sell Below BANK NIFTY 12375 12310 12250 12200 12435 12-12-12 12435 -1500.00 More
12-12-12 Buy Above BANK NIFTY 12435 12500 12550 12600 12375 12-12-12 12375 -1500.00 More
12-12-12 Buy Above Nifty 5948 5970 5990 6010 5930 12-12-12 5930 -900.00 More
12-12-12 Sell Below Nifty 5930 5910 5890 5870 5948 12-12-12 5948 -900.00 More
12-12-12 Buy PEL 580 595 625 --- 555 13-12-12 589 4500.00 More
12-12-12 Buy ACC 1440 1460 1475 --- 1430 12-12-12 1430 -2500.00 More
12-12-12 Sell Below FEDERAL BANK 500 490 480 --- 509 13-12-12 485 7500.00 More
11-12-12 Buy BANK NIFTY 12570 12630 12690 12750 12500 11-12-12 12620 1250.00 More
11-12-12 Sell Below BANK NIFTY 12500 12430 12350 12300 12570 11-12-12 12425 1875.00 More
11-12-12 Buy Above Nifty 5985 6010 6030 6050 5960 11-12-12 6002 850.00 More
11-12-12 Sell Below Nifty 5960 5940 5920 5900 5985 11-12-12 5943 850.00 More
11-12-12 Buy Above Adani Power 61.50 63 65 --- 60 11-12-12 62.80 5200.00 More
11-12-12 Buy HDFC 873 883 895 --- 863 11-12-12 884 5500.00 More
11-12-12 Buy Above ICICI BANK 1137 1150 1160 1170 1125 11-12-12 1156 4750.00 More
10-12-12 Sell TCS 1268 1250 1230 1210 1281 11-12-12 1221 11750.00 More
10-12-12 Sell Below Nifty 5930 5910 5890 5870 5950 10-12-12 5950 -1000.00 More
10-12-12 Buy Above BANK NIFTY 12450 12520 12590 12650 12380 10-12-12 12499 1225.00 More
10-12-12 Buy SupPetro 61 63 65 67 58 11-12-12 60.50 -820.00 More
10-12-12 Sell Suzlon Energy 18.50 18 17.50 17 19.60 11-12-12 18.60 -800.00 More
10-12-12 Buy Above MARUTI 1526 1535 1545 --- 1515 10-12-12 1515 -2750.00 More
07-12-12 Sell Below BANK NIFTY 12470 12400 12350 12300 12530 07-12-12 12402 1700.00 More
07-12-12 Sell Below Nifty 5965 5940 5920 5900 5986 07-12-12 5922 2150.00 More
07-12-12 Sell Below INFY 2335 2320 2300 --- 2355 10-12-12 2300 4375.00 More
07-12-12 Buy Above RELIANCE CAPITAL 459 466 471 --- 452 07-12-12 452 -3500.00 More
07-12-12 Buy Above PFC 203.50 207 210 --- 200 07-12-12 200 -7000.00 More
06-12-12 Buy Above BANK NIFTY 12350 12410 12450 12500 12280 06-12-12 12525 4375.00 More
06-12-12 Sell Below BANK NIFTY 12280 12220 12180 12120 12350 06-12-12 12220 1500.00 More
06-12-12 Buy Above Nifty 5930 5950 5970 5990 5905 06-12-12 5975 2250.00 More
06-12-12 Sell Below Nifty 5905 5880 5860 5840 5930 06-12-12 5871 1700.00 More
06-12-12 Sell AURO PHARMA 195 189 184 --- 199 06-12-12 192 6000.00 More
06-12-12 Buy Dish TV 81 83 84 85 79.50 07-12-12 82.70 6800.00 More
06-12-12 Buy Above DLF 225 228 231 --- 222 06-12-12 228 3000.00 More
05-12-12 Buy Above ICICI BANK 1129 1140 1150 --- 1118 05-12-12 1118 -2750.00 More
05-12-12 Buy Above RELIANCE CAPITAL 441 446 451 --- 436 05-12-12 436 -2500.00 More
05-12-12 Buy Above IFCI 34 35 36 --- 33 06-12-12 33 -8000.00 More
05-12-12 Buy Above BANK NIFTY 12350 13430 12480 --- 12280 05-12-12 12399 1225.00 More
05-12-12 Buy Above Nifty 5955 5980 6000 --- 5930 05-12-12 5930 -1250.00 More
05-12-12 Buy 141 150 155 160 130 14-12-12 133 -5600.00 More
04-12-12 Buy Above BANK NIFTY 12160 12220 12290 --- 12090 04-12-12 12280 3000.00 More
04-12-12 Buy 65.80 68 70 72 62.50 05-12-12 64.20 -6400.00 More
04-12-12 Buy Above Nifty 5910 5930 5950 5970 5890 04-12-12 5922 600.00 More
04-12-12 Buy Jain Irrigation 73 75 77 --- 71.50 04-12-12 71.50 -3000.00 More
03-12-12 Buy ExideInd 144.50 150 155 --- 137 03-12-12 149 9000.00 More
03-12-12 Sell Below BANK NIFTY 12140 12070 12020 11950 12210 03-12-12 12140 0.00 More
03-12-12 Sell Below Nifty 5910 5890 5870 5850 5930 03-12-12 5888 1100.00 More
03-12-12 Buy Above Karnataka Bank 179 184 188 --- 174 04-12-12 188 36000.00 More
03-12-12 Buy Above BHEL 235 238 242 --- 232 03-12-12 232 -3000.00 More
03-12-12 Buy ADANI ENT 242.50 245 248 --- 238 03-12-12 248 5500.00 More
30-11-12 Sell Below BANK NIFTY 12100 12070 12000 11950 12170 30-11-12 12170 -1750.00 More
30-11-12 Buy Above BANK NIFTY 12170 12220 12270 12320 12100 30-11-12 12225 1375.00 More
30-11-12 Sell Below Nifty 5870 5850 5830 5800 5895 30-11-12 5895 -1250.00 More
30-11-12 Buy Above Nifty 5895 5920 5935 5950 5870 30-11-12 5926 1550.00 More
30-11-12 Sell Below IDEA 99.50 97 95 --- 101 30-11-12 96.40 12400.00 More
30-11-12 Buy 1677 1690 1700 --- 1664 03-12-12 1695 4500.00 More
29-11-12 Buy CANARA BANK 441 451 --- --- 432.50 29-11-12 432.50 -4250.00 More
29-11-12 Buy Above BANK NIFTY 11750 11810 11850 --- 11680 29-11-12 11830 2000.00 More
29-11-12 Buy Nifty 5755 5775 5790 --- 5735 29-11-12 5787 1600.00 More
29-11-12 Buy JSWSteel 739 745 755 --- 732 29-11-12 748 4500.00 More
29-11-12 Buy Above FinanTech 1148 1165 1185 --- 1137 29-11-12 1162 7000.00 More
29-11-12 Buy CENTURY 402.50 406 411 --- 397 29-11-12 406 3500.00 More
27-11-12 Buy RELIANCE INFRA 466 475 485 --- 460 27-11-12 475 4500.00 More
27-11-12 Buy Above BANK NIFTY 11585 11650 11700 11750 11530 27-11-12 11670 2125.00 More
27-11-12 Buy Above Nifty 5700 5720 5740 5760 5680 27-11-12 5724 1200.00 More
27-11-12 Buy VOLTAS 104.50 107 108 110 102 27-11-12 106.60 4200.00 More
27-11-12 Buy Above HEXAWARE 108 111 114 --- 106 27-11-12 110.95 5900.00 More
27-11-12 Buy RELIANCE CAPITAL 396 400 404 --- 391 27-11-12 404 4000.00 More
27-11-12 Buy BATA 915 925 935 940 905 27-11-12 940 12500.00 More
Page wise profit 140105.00 Rs
Profit 26725375.50 Rs
TRIAL

TRIAL

SEND SMS FOR TRIAL

EQUITY - COMMODITY OR BOTH

TO

 09920033678

AND GET TRIAL